ANA411 RJTT-RJBE
Flight info
| Callsign | ANA411 |
|---|---|
| Flight time | 0h 51m |
| Altitude | 28000 |
| Route | NINOX Y28 IPLES Y207 ARASI Y20 WAKIT Y201 TRACY |
| Aircraft | A21N/M-SDE2FGHIJ3J4LORVWXY/LB1 |
Departure
| Time | 2026-04-23 11:36 |
|---|---|
| Airport | Tokyo Haneda International Airport (RJTT) |
Arrival
| Time | 2026-04-23 12:27 |
|---|---|
| Airport | Kobe Airport (RJBE) |
| Time | Latitude | Longitude | Altitude | Speed | Heading |
|---|---|---|---|---|---|
| 2026-04-23 11:01 | 35.55712 | 139.78540 | 29 ft | 0 kts | 240° |
| 2026-04-23 11:19 | 35.55718 | 139.78552 | 29 ft | 3 kts | 240° |
| 2026-04-23 11:19 | 35.55728 | 139.78573 | 29 ft | 3 kts | 240° |
| 2026-04-23 11:20 | 35.55737 | 139.78593 | 29 ft | 2 kts | 240° |
| 2026-04-23 11:20 | 35.55747 | 139.78610 | 29 ft | 3 kts | 214° |
| 2026-04-23 11:20 | 35.55762 | 139.78616 | 29 ft | 3 kts | 169° |
| 2026-04-23 11:20 | 35.55780 | 139.78608 | 29 ft | 2 kts | 150° |
| 2026-04-23 11:21 | 35.55787 | 139.78603 | 29 ft | 1 kts | 150° |
| 2026-04-23 11:25 | 35.55783 | 139.78606 | 29 ft | 2 kts | 150° |
| 2026-04-23 11:25 | 35.55764 | 139.78620 | 29 ft | 0 kts | 150° |
| 2026-04-23 11:26 | 35.55751 | 139.78629 | 29 ft | 4 kts | 150° |
| 2026-04-23 11:26 | 35.55714 | 139.78655 | 30 ft | 8 kts | 150° |
| 2026-04-23 11:27 | 35.55662 | 139.78701 | 31 ft | 6 kts | 118° |
| 2026-04-23 11:27 | 35.55659 | 139.78766 | 31 ft | 9 kts | 73° |
| 2026-04-23 11:27 | 35.55687 | 139.78834 | 29 ft | 8 kts | 61° |
| 2026-04-23 11:27 | 35.55681 | 139.78915 | 30 ft | 13 kts | 136° |
| 2026-04-23 11:28 | 35.55596 | 139.78978 | 31 ft | 16 kts | 150° |
| 2026-04-23 11:28 | 35.55493 | 139.79050 | 31 ft | 18 kts | 150° |
| 2026-04-23 11:28 | 35.55374 | 139.79134 | 32 ft | 21 kts | 150° |
| 2026-04-23 11:28 | 35.55241 | 139.79228 | 32 ft | 23 kts | 150° |
| 2026-04-23 11:29 | 35.55097 | 139.79331 | 30 ft | 25 kts | 150° |
| 2026-04-23 11:29 | 35.54938 | 139.79443 | 32 ft | 27 kts | 150° |
| 2026-04-23 11:29 | 35.54787 | 139.79551 | 32 ft | 24 kts | 150° |
| 2026-04-23 11:29 | 35.54637 | 139.79658 | 29 ft | 26 kts | 150° |
| 2026-04-23 11:30 | 35.54476 | 139.79772 | 28 ft | 28 kts | 150° |
| 2026-04-23 11:30 | 35.54306 | 139.79893 | 28 ft | 28 kts | 150° |
| 2026-04-23 11:30 | 35.54130 | 139.80017 | 30 ft | 30 kts | 150° |
| 2026-04-23 11:30 | 35.53989 | 139.80116 | 27 ft | 19 kts | 150° |
| 2026-04-23 11:31 | 35.53890 | 139.80187 | 27 ft | 13 kts | 155° |
| 2026-04-23 11:31 | 35.53792 | 139.80178 | 26 ft | 16 kts | 179° |
| 2026-04-23 11:31 | 35.53675 | 139.80191 | 29 ft | 16 kts | 172° |
| 2026-04-23 11:31 | 35.53569 | 139.80251 | 34 ft | 19 kts | 149° |
| 2026-04-23 11:32 | 35.53442 | 139.80341 | 38 ft | 23 kts | 150° |
| 2026-04-23 11:32 | 35.53292 | 139.80447 | 45 ft | 27 kts | 150° |
| 2026-04-23 11:32 | 35.53128 | 139.80563 | 52 ft | 22 kts | 150° |
| 2026-04-23 11:32 | 35.53048 | 139.80610 | 53 ft | 11 kts | 186° |
| 2026-04-23 11:33 | 35.52978 | 139.80545 | 53 ft | 14 kts | 223° |
| 2026-04-23 11:33 | 35.52896 | 139.80453 | 55 ft | 17 kts | 222° |
| 2026-04-23 11:33 | 35.52800 | 139.80346 | 53 ft | 20 kts | 222° |
| 2026-04-23 11:33 | 35.52691 | 139.80223 | 55 ft | 23 kts | 222° |
| 2026-04-23 11:34 | 35.52614 | 139.80147 | 53 ft | 10 kts | 198° |
| 2026-04-23 11:34 | 35.52545 | 139.80181 | 57 ft | 13 kts | 128° |
| 2026-04-23 11:34 | 35.52480 | 139.80263 | 52 ft | 7 kts | 133° |
| 2026-04-23 11:34 | 35.52439 | 139.80325 | 56 ft | 12 kts | 117° |
| 2026-04-23 11:35 | 35.52442 | 139.80394 | 53 ft | 7 kts | 48° |
| 2026-04-23 11:35 | 35.52449 | 139.80402 | 55 ft | 0 kts | 44° |
| 2026-04-23 11:35 | 35.52450 | 139.80403 | 55 ft | 3 kts | 44° |
| 2026-04-23 11:35 | 35.52628 | 139.80603 | 51 ft | 76 kts | 41° |
| 2026-04-23 11:36 | 35.53214 | 139.81255 | 56 ft | 146 kts | 39° |
| 2026-04-23 11:36 | 35.53969 | 139.82125 | 732 ft | 147 kts | 40° |
| 2026-04-23 11:36 | 35.54496 | 139.83215 | 1526 ft | 158 kts | 77° |
| 2026-04-23 11:36 | 35.54429 | 139.84138 | 2055 ft | 166 kts | 104° |
| 2026-04-23 11:37 | 35.53700 | 139.85262 | 2895 ft | 177 kts | 143° |
| 2026-04-23 11:37 | 35.52469 | 139.85667 | 3637 ft | 197 kts | 178° |
| 2026-04-23 11:37 | 35.51078 | 139.85143 | 4150 ft | 228 kts | 212° |
| 2026-04-23 11:37 | 35.49935 | 139.83672 | 4741 ft | 251 kts | 241° |
| 2026-04-23 11:38 | 35.49375 | 139.81607 | 5455 ft | 267 kts | 259° |
| 2026-04-23 11:38 | 35.49074 | 139.79303 | 6289 ft | 279 kts | 261° |
| 2026-04-23 11:38 | 35.48834 | 139.76915 | 7256 ft | 282 kts | 262° |
| 2026-04-23 11:38 | 35.48741 | 139.74494 | 8299 ft | 285 kts | 269° |
| 2026-04-23 11:39 | 35.48795 | 139.72056 | 9367 ft | 287 kts | 268° |
| 2026-04-23 11:39 | 35.48855 | 139.69601 | 10296 ft | 293 kts | 268° |
| 2026-04-23 11:39 | 35.48911 | 139.67007 | 10752 ft | 315 kts | 267° |
| 2026-04-23 11:39 | 35.48968 | 139.64239 | 11179 ft | 334 kts | 267° |
| 2026-04-23 11:40 | 35.49025 | 139.61310 | 11628 ft | 351 kts | 267° |
| 2026-04-23 11:40 | 35.49082 | 139.58256 | 12229 ft | 361 kts | 267° |
| 2026-04-23 11:40 | 35.49143 | 139.55162 | 13050 ft | 364 kts | 267° |
| 2026-04-23 11:40 | 35.49203 | 139.52061 | 13909 ft | 364 kts | 266° |
| 2026-04-23 11:41 | 35.49262 | 139.48951 | 14685 ft | 365 kts | 266° |
| 2026-04-23 11:41 | 35.49319 | 139.45834 | 15484 ft | 365 kts | 266° |
| 2026-04-23 11:41 | 35.49373 | 139.42724 | 16292 ft | 365 kts | 266° |
| 2026-04-23 11:41 | 35.49426 | 139.39613 | 17113 ft | 365 kts | 266° |
| 2026-04-23 11:42 | 35.49479 | 139.36499 | 17915 ft | 365 kts | 267° |
| 2026-04-23 11:42 | 35.49530 | 139.33375 | 18621 ft | 366 kts | 267° |
| 2026-04-23 11:42 | 35.49581 | 139.30288 | 19218 ft | 368 kts | 267° |
| 2026-04-23 11:42 | 35.49633 | 139.27101 | 19802 ft | 372 kts | 267° |
| 2026-04-23 11:43 | 35.49684 | 139.23949 | 20356 ft | 375 kts | 267° |
| 2026-04-23 11:43 | 35.49733 | 139.20736 | 20910 ft | 378 kts | 268° |
| 2026-04-23 11:43 | 35.49784 | 139.17509 | 21398 ft | 380 kts | 267° |
| 2026-04-23 11:43 | 35.49703 | 139.14260 | 21907 ft | 382 kts | 264° |
| 2026-04-23 11:44 | 35.49546 | 139.10995 | 22420 ft | 386 kts | 264° |
| 2026-04-23 11:44 | 35.49438 | 139.07678 | 22952 ft | 392 kts | 269° |
| 2026-04-23 11:44 | 35.49832 | 139.04335 | 23494 ft | 401 kts | 278° |
| 2026-04-23 11:44 | 35.50543 | 139.01010 | 23941 ft | 405 kts | 281° |
| 2026-04-23 11:45 | 35.51340 | 138.97685 | 24388 ft | 408 kts | 282° |
| 2026-04-23 11:45 | 35.52164 | 138.94342 | 24899 ft | 411 kts | 282° |
| 2026-04-23 11:45 | 35.52990 | 138.90966 | 25352 ft | 413 kts | 282° |
| 2026-04-23 11:45 | 35.53810 | 138.87577 | 25796 ft | 415 kts | 282° |
| 2026-04-23 11:46 | 35.54632 | 138.84164 | 26200 ft | 418 kts | 282° |
| 2026-04-23 11:46 | 35.55456 | 138.80753 | 26719 ft | 416 kts | 282° |
| 2026-04-23 11:46 | 35.56278 | 138.77346 | 27273 ft | 415 kts | 282° |
| 2026-04-23 11:46 | 35.57100 | 138.73950 | 27737 ft | 415 kts | 282° |
| 2026-04-23 11:47 | 35.57921 | 138.70567 | 27912 ft | 416 kts | 282° |
| 2026-04-23 11:47 | 35.58752 | 138.67148 | 27948 ft | 417 kts | 282° |
| 2026-04-23 11:47 | 35.59582 | 138.63726 | 27958 ft | 418 kts | 282° |
| 2026-04-23 11:47 | 35.60404 | 138.60309 | 27943 ft | 418 kts | 282° |
| 2026-04-23 11:48 | 35.61227 | 138.56871 | 27936 ft | 418 kts | 282° |
| 2026-04-23 11:48 | 35.61872 | 138.53455 | 27926 ft | 415 kts | 276° |
| 2026-04-23 11:48 | 35.62239 | 138.49955 | 27918 ft | 413 kts | 273° |
| 2026-04-23 11:48 | 35.62358 | 138.46431 | 27913 ft | 411 kts | 266° |
| 2026-04-23 11:49 | 35.62162 | 138.42931 | 27910 ft | 410 kts | 263° |
| 2026-04-23 11:49 | 35.61878 | 138.39454 | 27894 ft | 409 kts | 262° |
| 2026-04-23 11:49 | 35.61571 | 138.35990 | 27906 ft | 409 kts | 262° |
| 2026-04-23 11:49 | 35.61253 | 138.32520 | 27915 ft | 409 kts | 262° |
| 2026-04-23 11:50 | 35.60929 | 138.29039 | 27908 ft | 409 kts | 262° |
| 2026-04-23 11:50 | 35.60602 | 138.25568 | 27909 ft | 409 kts | 262° |
| 2026-04-23 11:50 | 35.60273 | 138.22101 | 27916 ft | 409 kts | 262° |
| 2026-04-23 11:50 | 35.59944 | 138.18620 | 27920 ft | 410 kts | 262° |
| 2026-04-23 11:51 | 35.59616 | 138.15133 | 27918 ft | 410 kts | 262° |
| 2026-04-23 11:51 | 35.59290 | 138.11649 | 27904 ft | 411 kts | 262° |
| 2026-04-23 11:51 | 35.58960 | 138.08157 | 27909 ft | 411 kts | 262° |
| 2026-04-23 11:51 | 35.58630 | 138.04673 | 27882 ft | 410 kts | 262° |
| 2026-04-23 11:52 | 35.58302 | 138.01197 | 27873 ft | 410 kts | 262° |
| 2026-04-23 11:52 | 35.57974 | 137.97720 | 27888 ft | 411 kts | 262° |
| 2026-04-23 11:52 | 35.57648 | 137.94228 | 27883 ft | 411 kts | 262° |
| 2026-04-23 11:52 | 35.57324 | 137.90741 | 27875 ft | 412 kts | 262° |
| 2026-04-23 11:53 | 35.57000 | 137.87249 | 27864 ft | 412 kts | 262° |
| 2026-04-23 11:53 | 35.56678 | 137.83756 | 27866 ft | 412 kts | 262° |
| 2026-04-23 11:53 | 35.56356 | 137.80253 | 27869 ft | 412 kts | 262° |
| 2026-04-23 11:53 | 35.56033 | 137.76753 | 27858 ft | 413 kts | 262° |
| 2026-04-23 11:54 | 35.55705 | 137.73242 | 27861 ft | 413 kts | 262° |
| 2026-04-23 11:54 | 35.55375 | 137.69742 | 27845 ft | 412 kts | 262° |
| 2026-04-23 11:54 | 35.55044 | 137.66245 | 27880 ft | 409 kts | 262° |
| 2026-04-23 11:54 | 35.54720 | 137.62791 | 27852 ft | 408 kts | 262° |
| 2026-04-23 11:55 | 35.54400 | 137.59329 | 27834 ft | 408 kts | 262° |
| 2026-04-23 11:55 | 35.54082 | 137.55910 | 27839 ft | 406 kts | 262° |
| 2026-04-23 11:55 | 35.53756 | 137.52462 | 27836 ft | 406 kts | 262° |
| 2026-04-23 11:55 | 35.53429 | 137.49015 | 27838 ft | 406 kts | 262° |
| 2026-04-23 11:56 | 35.53101 | 137.45574 | 27829 ft | 407 kts | 262° |
| 2026-04-23 11:56 | 35.52772 | 137.42127 | 27828 ft | 406 kts | 262° |
| 2026-04-23 11:56 | 35.52444 | 137.38680 | 27829 ft | 406 kts | 262° |
| 2026-04-23 11:56 | 35.52113 | 137.35242 | 27815 ft | 405 kts | 262° |
| 2026-04-23 11:57 | 35.51778 | 137.31809 | 27840 ft | 405 kts | 262° |
| 2026-04-23 11:57 | 35.51440 | 137.28371 | 27816 ft | 405 kts | 262° |
| 2026-04-23 11:57 | 35.51102 | 137.24937 | 27814 ft | 405 kts | 262° |
| 2026-04-23 11:57 | 35.50764 | 137.21503 | 27807 ft | 406 kts | 262° |
| 2026-04-23 11:58 | 35.50424 | 137.18064 | 27806 ft | 406 kts | 262° |
| 2026-04-23 11:58 | 35.50084 | 137.14624 | 27805 ft | 406 kts | 262° |
| 2026-04-23 11:58 | 35.49745 | 137.11192 | 27830 ft | 406 kts | 262° |
| 2026-04-23 11:58 | 35.49407 | 137.07739 | 27823 ft | 407 kts | 262° |
| 2026-04-23 11:59 | 35.49074 | 137.04299 | 27815 ft | 407 kts | 262° |
| 2026-04-23 11:59 | 35.48742 | 137.00843 | 27813 ft | 407 kts | 262° |
| 2026-04-23 11:59 | 35.48411 | 136.97396 | 27799 ft | 407 kts | 262° |
| 2026-04-23 11:59 | 35.48078 | 136.93958 | 27802 ft | 405 kts | 262° |
| 2026-04-23 12:00 | 35.47746 | 136.90567 | 27803 ft | 405 kts | 262° |
| 2026-04-23 12:00 | 35.47409 | 136.87139 | 27807 ft | 405 kts | 262° |
| 2026-04-23 12:00 | 35.47069 | 136.83669 | 27806 ft | 405 kts | 262° |
| 2026-04-23 12:00 | 35.46731 | 136.80234 | 27807 ft | 405 kts | 262° |
| 2026-04-23 12:01 | 35.46398 | 136.76851 | 27806 ft | 405 kts | 262° |
| 2026-04-23 12:01 | 35.46059 | 136.73433 | 27807 ft | 403 kts | 262° |
| 2026-04-23 12:01 | 35.45716 | 136.70013 | 27803 ft | 403 kts | 262° |
| 2026-04-23 12:01 | 35.45374 | 136.66615 | 27812 ft | 403 kts | 262° |
| 2026-04-23 12:02 | 35.45030 | 136.63201 | 27812 ft | 403 kts | 262° |
| 2026-04-23 12:02 | 35.44686 | 136.59790 | 27812 ft | 403 kts | 262° |
| 2026-04-23 12:02 | 35.44342 | 136.56378 | 27825 ft | 404 kts | 262° |
| 2026-04-23 12:02 | 35.44000 | 136.52949 | 27816 ft | 406 kts | 261° |
| 2026-04-23 12:03 | 35.43378 | 136.49542 | 27815 ft | 411 kts | 252° |
| 2026-04-23 12:03 | 35.42314 | 136.46299 | 27822 ft | 411 kts | 247° |
| 2026-04-23 12:03 | 35.41150 | 136.43088 | 27816 ft | 411 kts | 246° |
| 2026-04-23 12:03 | 35.39987 | 136.39888 | 27824 ft | 411 kts | 247° |
| 2026-04-23 12:04 | 35.38827 | 136.36686 | 27828 ft | 411 kts | 247° |
| 2026-04-23 12:04 | 35.37670 | 136.33481 | 27824 ft | 412 kts | 247° |
| 2026-04-23 12:04 | 35.36512 | 136.30267 | 27824 ft | 412 kts | 247° |
| 2026-04-23 12:04 | 35.35354 | 136.27055 | 27823 ft | 412 kts | 247° |
| 2026-04-23 12:05 | 35.34198 | 136.23851 | 27824 ft | 412 kts | 247° |
| 2026-04-23 12:05 | 35.33036 | 136.20640 | 27825 ft | 412 kts | 247° |
| 2026-04-23 12:05 | 35.31876 | 136.17428 | 27826 ft | 412 kts | 247° |
| 2026-04-23 12:05 | 35.30718 | 136.14230 | 27822 ft | 411 kts | 247° |
| 2026-04-23 12:06 | 35.29557 | 136.11029 | 27823 ft | 411 kts | 247° |
| 2026-04-23 12:06 | 35.28398 | 136.07836 | 27829 ft | 411 kts | 247° |
| 2026-04-23 12:06 | 35.26076 | 136.01441 | 27829 ft | 411 kts | 247° |
| 2026-04-23 12:07 | 35.24912 | 135.98243 | 27828 ft | 411 kts | 247° |
| 2026-04-23 12:07 | 35.23747 | 135.95046 | 27824 ft | 411 kts | 247° |
| 2026-04-23 12:07 | 35.22586 | 135.91860 | 27824 ft | 410 kts | 247° |
| 2026-04-23 12:07 | 35.21426 | 135.88675 | 27826 ft | 410 kts | 247° |
| 2026-04-23 12:08 | 35.20270 | 135.85514 | 27720 ft | 405 kts | 247° |
| 2026-04-23 12:08 | 35.19118 | 135.82363 | 27399 ft | 404 kts | 247° |
| 2026-04-23 12:08 | 35.18138 | 135.79201 | 26935 ft | 405 kts | 254° |
| 2026-04-23 12:08 | 35.17491 | 135.75849 | 26420 ft | 405 kts | 258° |
| 2026-04-23 12:09 | 35.16935 | 135.72481 | 25892 ft | 403 kts | 258° |
| 2026-04-23 12:09 | 35.16386 | 135.69130 | 25373 ft | 400 kts | 258° |
| 2026-04-23 12:09 | 35.15833 | 135.65806 | 24860 ft | 398 kts | 258° |
| 2026-04-23 12:09 | 35.15278 | 135.62507 | 24355 ft | 396 kts | 258° |
| 2026-04-23 12:10 | 35.14723 | 135.59220 | 23858 ft | 394 kts | 258° |
| 2026-04-23 12:10 | 35.14172 | 135.55952 | 23349 ft | 391 kts | 258° |
| 2026-04-23 12:10 | 35.13626 | 135.52711 | 22766 ft | 388 kts | 258° |
| 2026-04-23 12:10 | 35.13080 | 135.49487 | 22194 ft | 386 kts | 258° |
| 2026-04-23 12:11 | 35.12537 | 135.46280 | 21661 ft | 384 kts | 258° |
| 2026-04-23 12:11 | 35.11996 | 135.43100 | 21111 ft | 382 kts | 258° |
| 2026-04-23 12:11 | 35.11457 | 135.39935 | 20558 ft | 380 kts | 258° |
| 2026-04-23 12:11 | 35.10919 | 135.36786 | 20032 ft | 378 kts | 258° |
| 2026-04-23 12:12 | 35.10383 | 135.33658 | 19509 ft | 375 kts | 258° |
| 2026-04-23 12:12 | 35.09849 | 135.30548 | 18997 ft | 374 kts | 258° |
| 2026-04-23 12:12 | 35.09316 | 135.27440 | 18517 ft | 373 kts | 258° |
| 2026-04-23 12:12 | 35.08784 | 135.24345 | 18046 ft | 371 kts | 258° |
| 2026-04-23 12:13 | 35.08253 | 135.21269 | 17524 ft | 370 kts | 258° |
| 2026-04-23 12:13 | 35.07722 | 135.18196 | 17008 ft | 369 kts | 258° |
| 2026-04-23 12:13 | 35.07191 | 135.15135 | 16497 ft | 369 kts | 258° |
| 2026-04-23 12:13 | 35.06663 | 135.12083 | 16012 ft | 368 kts | 258° |
| 2026-04-23 12:14 | 35.06134 | 135.09025 | 15542 ft | 367 kts | 258° |
| 2026-04-23 12:14 | 35.05605 | 135.05979 | 15093 ft | 367 kts | 258° |
| 2026-04-23 12:14 | 35.05077 | 135.02934 | 14669 ft | 367 kts | 258° |
| 2026-04-23 12:14 | 35.04545 | 134.99881 | 14250 ft | 367 kts | 258° |
| 2026-04-23 12:15 | 35.03962 | 134.96864 | 13829 ft | 366 kts | 254° |
| 2026-04-23 12:15 | 35.02844 | 134.94083 | 13402 ft | 365 kts | 237° |
| 2026-04-23 12:15 | 35.01074 | 134.91892 | 12922 ft | 362 kts | 219° |
| 2026-04-23 12:15 | 34.98857 | 134.90491 | 12463 ft | 358 kts | 205° |
| 2026-04-23 12:16 | 34.96546 | 134.89489 | 11976 ft | 346 kts | 201° |
| 2026-04-23 12:16 | 34.94343 | 134.88565 | 11502 ft | 332 kts | 202° |
| 2026-04-23 12:16 | 34.92206 | 134.87654 | 11052 ft | 318 kts | 202° |
| 2026-04-23 12:16 | 34.90157 | 134.86768 | 10608 ft | 307 kts | 202° |
| 2026-04-23 12:17 | 34.88183 | 134.85907 | 10172 ft | 297 kts | 202° |
| 2026-04-23 12:17 | 34.86267 | 134.85067 | 9779 ft | 289 kts | 202° |
| 2026-04-23 12:17 | 34.84383 | 134.84241 | 9368 ft | 286 kts | 202° |
| 2026-04-23 12:17 | 34.82520 | 134.83421 | 8951 ft | 283 kts | 202° |
| 2026-04-23 12:18 | 34.80672 | 134.82608 | 8601 ft | 282 kts | 201° |
| 2026-04-23 12:18 | 34.78832 | 134.81802 | 8288 ft | 279 kts | 202° |
| 2026-04-23 12:18 | 34.77019 | 134.81006 | 7984 ft | 276 kts | 201° |
| 2026-04-23 12:18 | 34.75212 | 134.80213 | 7681 ft | 276 kts | 200° |
| 2026-04-23 12:19 | 34.73401 | 134.79417 | 7386 ft | 277 kts | 200° |
| 2026-04-23 12:19 | 34.71590 | 134.78623 | 7092 ft | 274 kts | 199° |
| 2026-04-23 12:19 | 34.69786 | 134.77887 | 6797 ft | 273 kts | 192° |
| 2026-04-23 12:19 | 34.67916 | 134.77827 | 6494 ft | 269 kts | 165° |
| 2026-04-23 12:20 | 34.66299 | 134.78779 | 6214 ft | 260 kts | 137° |
| 2026-04-23 12:20 | 34.65220 | 134.80478 | 5908 ft | 252 kts | 112° |
| 2026-04-23 12:20 | 34.64676 | 134.82483 | 5613 ft | 248 kts | 103° |
| 2026-04-23 12:20 | 34.64228 | 134.84501 | 5317 ft | 246 kts | 103° |
| 2026-04-23 12:21 | 34.63770 | 134.86502 | 5061 ft | 245 kts | 104° |
| 2026-04-23 12:21 | 34.63304 | 134.88477 | 4861 ft | 243 kts | 104° |
| 2026-04-23 12:21 | 34.62849 | 134.90410 | 4648 ft | 233 kts | 103° |
| 2026-04-23 12:21 | 34.62412 | 134.92267 | 4435 ft | 224 kts | 103° |
| 2026-04-23 12:22 | 34.61984 | 134.94053 | 4194 ft | 217 kts | 103° |
| 2026-04-23 12:22 | 34.61565 | 134.95776 | 3935 ft | 210 kts | 102° |
| 2026-04-23 12:22 | 34.61289 | 134.97471 | 3676 ft | 200 kts | 89° |
| 2026-04-23 12:22 | 34.61339 | 134.98574 | 3512 ft | 195 kts | 81° |
| 2026-04-23 12:23 | 34.61491 | 135.00183 | 3290 ft | 188 kts | 81° |
| 2026-04-23 12:23 | 34.61631 | 135.01711 | 3125 ft | 176 kts | 80° |
| 2026-04-23 12:23 | 34.61751 | 135.03166 | 3004 ft | 174 kts | 78° |
| 2026-04-23 12:23 | 34.61873 | 135.04685 | 2794 ft | 186 kts | 80° |
| 2026-04-23 12:24 | 34.61996 | 135.06252 | 2516 ft | 187 kts | 79° |
| 2026-04-23 12:24 | 34.62120 | 135.07819 | 2225 ft | 186 kts | 78° |
| 2026-04-23 12:24 | 34.62243 | 135.09380 | 1929 ft | 184 kts | 78° |
| 2026-04-23 12:24 | 34.62363 | 135.10894 | 1663 ft | 176 kts | 79° |
| 2026-04-23 12:25 | 34.62476 | 135.12328 | 1448 ft | 163 kts | 78° |
| 2026-04-23 12:25 | 34.62579 | 135.13641 | 1237 ft | 146 kts | 80° |
| 2026-04-23 12:25 | 34.62666 | 135.14756 | 1038 ft | 123 kts | 78° |
| 2026-04-23 12:25 | 34.62746 | 135.15756 | 887 ft | 116 kts | 79° |
| 2026-04-23 12:26 | 34.62822 | 135.16724 | 742 ft | 116 kts | 79° |
| 2026-04-23 12:26 | 34.62898 | 135.17715 | 609 ft | 117 kts | 79° |
| 2026-04-23 12:26 | 34.62977 | 135.18661 | 467 ft | 114 kts | 78° |
| 2026-04-23 12:26 | 34.63053 | 135.19626 | 313 ft | 113 kts | 82° |
| 2026-04-23 12:27 | 34.63125 | 135.20565 | 150 ft | 112 kts | 81° |
| 2026-04-23 12:27 | 34.63202 | 135.21516 | 45 ft | 112 kts | 81° |
| 2026-04-23 12:27 | 34.63264 | 135.22360 | 41 ft | 80 kts | 86° |
| 2026-04-23 12:27 | 34.63304 | 135.22827 | 40 ft | 29 kts | 84° |
| 2026-04-23 12:28 | 34.63322 | 135.23055 | 38 ft | 23 kts | 85° |
| 2026-04-23 12:28 | 34.63333 | 135.23158 | 37 ft | 11 kts | 65° |
| 2026-04-23 12:28 | 34.63411 | 135.23194 | 39 ft | 13 kts | 357° |
| 2026-04-23 12:28 | 34.63486 | 135.23167 | 40 ft | 13 kts | 317° |
| 2026-04-23 12:29 | 34.63493 | 135.23068 | 39 ft | 12 kts | 262° |
| 2026-04-23 12:29 | 34.63483 | 135.22976 | 40 ft | 11 kts | 264° |
| 2026-04-23 12:29 | 34.63479 | 135.22924 | 39 ft | 7 kts | 265° |
| 2026-04-23 12:29 | 34.63494 | 135.22884 | 41 ft | 7 kts | 327° |
| 2026-04-23 12:30 | 34.63541 | 135.22871 | 41 ft | 6 kts | 354° |
| 2026-04-23 12:30 | 34.63574 | 135.22867 | 39 ft | 4 kts | 354° |
| 2026-04-23 12:30 | 34.63596 | 135.22864 | 41 ft | 3 kts | 353° |
| 2026-04-23 12:30 | 34.63608 | 135.22863 | 40 ft | 2 kts | 354° |
| 2026-04-23 12:31 | 34.63610 | 135.22862 | 41 ft | 0 kts | 354° |